• Join FlightAware (Why Join?)
  • Login
  • US Flag 
08:10PM EDT


 

Airport Tracker/Info


-or-


 

Live Flight TrackerFlight Track Log ✈ EGF3520 ✈ 27-Dec-2013 ✈ KBNA - KDCA

Flight Track Log - Related Links

Times and Time Zones

All times are in EST time to prevent confusion due to time zone crossing. See the EGF3520 flight status page for this flight to view local times or setup timezone preferences in your user account.

Time Position Orientation Groundspeed Altitude Reporting Facility
EST Latitude Longitude Course Direction KTS MPH feet Rate Location/Type
04:18PM 36.0833 -86.6833 180° South 170 196 2,400  Level Nashville TRACON
04:19PM 36.0283 -86.6803 177° South 194 223 4,800 2,460 Climbing Memphis Center
04:20PM 36.0264 -86.5997 92° East 242 278 7,300 2,460 Climbing Memphis Center
04:21PM 36.2754 -86.2240 39° Northeast  Level Estimated
04:21PM 36.0564 -86.5111 67° East 270 311 10,000  Level Memphis Center
04:22PM 36.3253 -86.0722 63° Northeast  Level Estimated
04:22PM 36.0889 -86.4161 67° East 289 333 12,000  Level Memphis Center
04:23PM 36.3751 -85.9203 58° Northeast  Level Estimated
04:24PM 36.1250 -86.3047 68° East 334 384 13,900  Level Memphis Center
04:25PM 36.1611 -86.1906 69° East 351 404 16,000 1,920 Climbing Memphis Center
04:26PM 36.2069 -86.0536 67° East 362 417 17,900 1,740 Climbing Memphis Center
04:27PM 36.2572 -85.9397 61° Northeast 369 425 19,600 1,380 Climbing Memphis Center
04:28PM 36.3031 -85.8383 61° Northeast 395 455 20,700 1,320 Climbing Indianapolis Center
04:29PM 36.3619 -85.7136 60° Northeast 415 478 22,200 1,560 Climbing Indianapolis Center
04:30PM 36.4344 -85.5586 60° Northeast 429 494 24,000 1,560 Climbing Indianapolis Center
04:31PM 36.4989 -85.4269 59° Northeast 439 505 25,500 1,260 Climbing Indianapolis Center
04:32PM 36.5611 -85.2914 60° Northeast 448 516 26,600 720 Climbing Indianapolis Center
04:33PM 36.6261 -85.1494 60° Northeast 467 537 27,000 180 Climbing Indianapolis Center
04:34PM 36.6750 -84.9861 69° East 497 572 27,000  Level Indianapolis Center
04:35PM 36.7244 -84.8192 70° East 509 586 27,000  Level Indianapolis Center
04:36PM 36.7747 -84.6503 70° East 517 595 27,000  Level Indianapolis Center
04:37PM 36.8306 -84.4683 69° East 520 598 27,000  Level Indianapolis Center
04:38PM 36.8817 -84.2989 69° East 521 600 27,000  Level Indianapolis Center
04:39PM 36.9328 -84.1256 70° East 527 606 27,000  Level Indianapolis Center
04:40PM 36.9922 -83.9272 69° East 523 602 27,000  Level Indianapolis Center
04:41PM 37.0425 -83.7561 70° East 523 602 27,000  Level Indianapolis Center
04:42PM 37.0947 -83.5836 69° East 528 608 27,000  Level Indianapolis Center
04:43PM 37.1442 -83.4103 70° East 525 604 27,000  Level Indianapolis Center
04:44PM 37.1944 -83.2364 70° East 527 606 27,000  Level Indianapolis Center
04:45PM 37.2453 -83.0631 70° East 525 604 27,000  Level Indianapolis Center
04:46PM 37.2942 -82.8881 71° East 523 602 27,000  Level Indianapolis Center
04:47PM 37.3439 -82.7142 70° East 524 603 27,000  Level Indianapolis Center
04:48PM 37.4014 -82.5125 70° East 523 602 27,000  Level Indianapolis Center
04:49PM 37.4506 -82.3400 70° East 521 600 27,000  Level Indianapolis Center
04:50PM 37.4975 -82.1650 71° East 525 604 27,000  Level Indianapolis Center
04:51PM 37.5469 -81.9922 70° East 524 603 27,000  Level Indianapolis Center
04:52PM 37.5936 -81.8197 71° East 520 598 27,000  Level Indianapolis Center
04:53PM 37.6403 -81.6492 71° East 516 594 27,000  Level Indianapolis Center
04:54PM 37.6867 -81.4731 72° East 513 590 27,000  Level Indianapolis Center
04:55PM 37.7406 -81.2722 71° East 515 593 27,000  Level Indianapolis Center
04:56PM 37.7856 -81.1064 71° East 513 590 27,000  Level Indianapolis Center
04:57PM 37.8461 -80.9339 66° East 511 588 27,000  Level Indianapolis Center
04:58PM 37.9033 -80.7731 66° East 506 582 27,000  Level Indianapolis Center
05:00PM 37.9619 -80.6103 65° Northeast 508 585 27,000  Level Indianapolis Center
05:01PM 38.0217 -80.4383 66° East 505 581 27,000  Level Indianapolis Center
05:02PM 38.0747 -80.2869 66° East 504 580 27,000  Level Indianapolis Center
05:03PM 38.1333 -80.1214 66° East 505 581 27,000  Level Indianapolis Center
05:04PM 38.1958 -79.9592 64° Northeast 504 580 27,000  Level Washington Center
05:05PM 38.2586 -79.7778 66° East 498 573 27,000  Level Washington Center
05:06PM 38.3144 -79.6167 66° East 492 566 27,000  Level Washington Center
05:07PM 38.3717 -79.4558 66° East 492 566 27,000  Level Washington Center
05:08PM 38.4247 -79.2942 67° East 492 566 27,000 -900 Level Washington Center
05:09PM 38.4569 -79.1286 76° East 487 560 25,300 -1,620 Descending Washington Center
05:10PM 38.4797 -78.9892 78° East 465 535 23,800 -1,380 Descending Washington Center
05:11PM 38.5053 -78.8206 79° East 444 511 22,500 -1,320 Descending Washington Center
05:12PM 38.5278 -78.6756 79° East 439 505 21,300 -1,380 Descending Washington Center
05:13PM 38.5503 -78.5306 79° East 423 487 19,800 -1,500 Descending Washington Center
05:14PM 38.5744 -78.3853 78° East 417 480 18,300 -1,620 Descending Washington Center
05:15PM 38.5983 -78.2481 77° East 406 467 16,600 -1,440 Descending Washington Center
05:16PM 38.6364 -78.1272 68° East 384 442 15,400 -1,380 Descending Washington Center
05:17PM 38.6767 -78.0064 67° East 370 426 13,900 -1,620 Descending Washington Center
05:18PM 38.7100 -77.8956 69° East 348 400 12,300 -1,440 Descending Washington Center
05:19PM 38.7492 -77.8011 62° Northeast 320 368 11,100 -660 Descending Washington Center
05:20PM 38.8069 -77.7203 47° Northeast 303 349 11,000 -600 Descending Washington Center
05:21PM 38.8606 -77.6444 48° Northeast 291 335 10,000 -1,440 Descending Washington Center
05:21PM 38.9000 -77.5833 50° Northeast 283 326 8,500 -1,080 Descending Potomac TRACON
05:22PM 38.9500 -77.5000 52° Northeast 285 328 8,100 -900 Descending Potomac TRACON
05:23PM 38.9500 -77.4000 90° East 287 330 6,800 -1,440 Descending Potomac TRACON
05:24PM 38.9667 -77.3000 78° East 272 313 5,200 -1,740 Descending Potomac TRACON
05:25PM 38.9667 -77.2000 90° East 260 299 3,400 -1,620 Descending Potomac TRACON
05:26PM 38.9500 -77.1333 108° East 207 238 2,000 -1,080 Descending Potomac TRACON
05:27PM 38.9167 -77.1000 142° Southeast 165 190 1,300 -660 Descending Potomac TRACON
05:28PM 38.8833 -77.0500 131° Southeast 126 145 700 -600 Descending Potomac TRACON